Time;durP1;ratioP1;P1;durP2;ratioP2;P2;SDS_P1;SDS_P2;PMS_P1;PMS_P2;Temp;Humidity;BMP_temperature;BMP_pressure;BME280_temperature;BME280_humidity;BME280_pressure;Samples;Min_cycle;Max_cycle;Signal;HPM_P1;HPM_P2
2024/01/10 00:02:25;;;;;;;8.32;4.32;;;;;;;;;;5028572;28;20033;-78
2024/01/10 00:04:51;;;;;;;7.82;4.20;;;;;;;;;;5020983;28;20077;-77
2024/01/10 00:07:20;;;;;;;9.85;4.95;;;;;;;;;;5034836;28;20029;-76
2024/01/10 00:09:46;;;;;;;9.68;4.43;;;;;;;;;;5025916;28;20232;-77
2024/01/10 00:12:13;;;;;;;9.20;4.60;;;;;;;;;;5011542;28;20335;-77
2024/01/10 00:14:39;;;;;;;10.25;5.13;;;;;;;;;;5023564;28;20037;-77
2024/01/10 00:17:05;;;;;;;11.98;5.43;;;;;;;;;;5028875;28;20041;-77
2024/01/10 00:19:31;;;;;;;12.52;4.45;;;;;;;;;;5032085;28;20080;-76
2024/01/10 00:21:58;;;;;;;10.18;4.95;;;;;;;;;;5040292;28;20025;-76
2024/01/10 00:24:24;;;;;;;8.85;5.07;;;;;;;;;;5029353;28;20033;-76
2024/01/10 00:26:50;;;;;;;9.57;4.60;;;;;;;;;;5027959;28;20442;-78
2024/01/10 00:29:16;;;;;;;8.63;4.78;;;;;;;;;;5022731;28;20064;-78
2024/01/10 00:31:42;;;;;;;9.35;4.72;;;;;;;;;;5026468;28;20037;-77
2024/01/10 00:34:08;;;;;;;8.48;4.53;;;;;;;;;;5033285;28;20117;-77
2024/01/10 00:36:34;;;;;;;8.48;5.13;;;;;;;;;;5030636;28;20058;-78
2024/01/10 00:39:01;;;;;;;7.97;4.70;;;;;;;;;;5027281;28;20034;-80
2024/01/10 00:41:27;;;;;;;10.75;4.97;;;;;;;;;;5031851;28;20055;-77
2024/01/10 00:43:53;;;;;;;9.57;4.63;;;;;;;;;;5025833;28;20041;-78
2024/01/10 00:46:19;;;;;;;9.23;4.70;;;;;;;;;;5045364;28;20400;-76
2024/01/10 00:48:46;;;;;;;8.95;4.53;;;;;;;;;;5027122;28;20049;-76
2024/01/10 00:51:12;;;;;;;12.25;4.93;;;;;;;;;;5023841;28;20021;-77
2024/01/10 00:53:38;;;;;;;9.82;4.57;;;;;;;;;;5023502;28;20215;-79
2024/01/10 00:56:05;;;;;;;9.35;4.53;;;;;;;;;;5052735;28;20086;-77
2024/01/10 00:58:31;;;;;;;9.20;5.03;;;;;;;;;;5028709;28;20042;-77
2024/01/10 01:00:57;;;;;;;8.90;4.85;;;;;;;;;;5023221;28;20065;-77
2024/01/10 01:03:23;;;;;;;10.85;4.80;;;;;;;;;;5028561;28;20045;-78
2024/01/10 01:05:50;;;;;;;9.73;4.90;;;;;;;;;;5026365;28;20013;-78
2024/01/10 01:08:16;;;;;;;11.57;4.88;;;;;;;;;;5022918;28;20031;-77
2024/01/10 01:10:42;;;;;;;8.93;4.50;;;;;;;;;;5033973;28;20065;-76
2024/01/10 01:13:08;;;;;;;10.10;4.88;;;;;;;;;;5021590;28;20052;-77
2024/01/10 01:15:34;;;;;;;8.85;4.70;;;;;;;;;;5027440;28;20116;-78
2024/01/10 01:18:00;;;;;;;9.40;5.03;;;;;;;;;;5025466;28;20156;-79
2024/01/10 01:20:26;;;;;;;8.60;4.60;;;;;;;;;;5029345;28;20029;-77
2024/01/10 01:22:55;;;;;;;9.15;4.53;;;;;;;;;;5028909;28;20039;-77
2024/01/10 01:25:21;;;;;;;10.85;5.00;;;;;;;;;;5028665;28;20033;-76
2024/01/10 01:27:48;;;;;;;10.38;5.05;;;;;;;;;;5027643;28;20026;-76
2024/01/10 01:30:14;;;;;;;8.77;4.70;;;;;;;;;;5027475;28;20108;-76
2024/01/10 01:32:40;;;;;;;10.73;4.40;;;;;;;;;;5031379;28;20398;-77
2024/01/10 01:35:06;;;;;;;9.35;4.78;;;;;;;;;;5026803;28;20437;-77
2024/01/10 01:37:32;;;;;;;10.05;4.53;;;;;;;;;;5028789;28;20026;-76
2024/01/10 01:39:59;;;;;;;8.93;4.68;;;;;;;;;;5026344;28;20096;-75
2024/01/10 01:42:25;;;;;;;9.80;4.68;;;;;;;;;;5029367;28;20060;-78
2024/01/10 01:44:51;;;;;;;14.05;5.30;;;;;;;;;;5026816;28;20118;-77
2024/01/10 01:47:17;;;;;;;12.27;4.85;;;;;;;;;;5029160;28;20025;-77
2024/01/10 01:49:43;;;;;;;10.90;5.22;;;;;;;;;;5027766;28;20063;-76
2024/01/10 01:52:10;;;;;;;12.13;5.53;;;;;;;;;;5026155;28;20061;-78
2024/01/10 01:54:36;;;;;;;10.27;4.68;;;;;;;;;;5026649;28;20502;-77
2024/01/10 01:57:02;;;;;;;9.38;4.75;;;;;;;;;;5045672;28;20079;-77
2024/01/10 01:59:29;;;;;;;9.48;4.68;;;;;;;;;;5030885;28;20038;-77
2024/01/10 02:01:58;;;;;;;10.00;5.05;;;;;;;;;;5025802;28;20038;-78
2024/01/10 02:04:24;;;;;;;8.52;5.50;;;;;;;;;;5028516;28;20395;-77
2024/01/10 02:06:51;;;;;;;11.43;5.63;;;;;;;;;;5031326;28;20116;-76
2024/01/10 02:09:17;;;;;;;12.70;6.65;;;;;;;;;;5028727;28;20447;-78
2024/01/10 02:11:43;;;;;;;14.25;6.13;;;;;;;;;;5027368;28;20112;-77
2024/01/10 02:14:10;;;;;;;11.43;6.68;;;;;;;;;;5019930;28;20033;-77
2024/01/10 02:16:36;;;;;;;12.65;6.85;;;;;;;;;;5026345;28;20079;-77
2024/01/10 02:19:17;;;;;;;14.32;7.47;;;;;;;;;;5030071;28;20128;-77
2024/01/10 02:21:43;;;;;;;14.25;6.47;;;;;;;;;;5029300;28;20033;-76
2024/01/10 02:24:09;;;;;;;14.02;7.03;;;;;;;;;;5033401;28;20049;-77
2024/01/10 02:26:36;;;;;;;14.38;6.90;;;;;;;;;;5039767;28;20041;-77
2024/01/10 02:29:02;;;;;;;15.05;6.22;;;;;;;;;;5027494;28;20029;-78
2024/01/10 02:31:28;;;;;;;11.80;6.47;;;;;;;;;;5027296;28;20037;-79
2024/01/10 02:33:54;;;;;;;10.77;6.57;;;;;;;;;;5028230;28;20099;-76
2024/01/10 02:36:20;;;;;;;11.23;6.15;;;;;;;;;;5026193;28;20395;-77
2024/01/10 02:38:47;;;;;;;11.77;6.40;;;;;;;;;;5024503;28;20104;-76
2024/01/10 02:41:13;;;;;;;13.45;6.47;;;;;;;;;;5026821;28;20021;-77
2024/01/10 02:43:39;;;;;;;13.70;6.78;;;;;;;;;;5024924;28;20053;-78
2024/01/10 02:46:05;;;;;;;11.15;5.82;;;;;;;;;;5028228;28;20021;-77
2024/01/10 02:48:32;;;;;;;13.38;6.78;;;;;;;;;;5025253;28;20089;-76
2024/01/10 02:50:58;;;;;;;11.57;6.40;;;;;;;;;;5028628;28;20034;-76
2024/01/10 02:53:24;;;;;;;11.57;6.35;;;;;;;;;;5024556;28;20060;-76
2024/01/10 02:55:50;;;;;;;13.88;6.60;;;;;;;;;;5024917;28;20053;-76
2024/01/10 02:58:17;;;;;;;12.63;6.63;;;;;;;;;;5026754;28;20041;-76
2024/01/10 03:00:43;;;;;;;11.45;6.03;;;;;;;;;;5028505;28;20037;-76
2024/01/10 03:03:09;;;;;;;12.50;6.68;;;;;;;;;;5025045;28;20031;-76
2024/01/10 03:05:35;;;;;;;15.82;6.38;;;;;;;;;;5024780;28;20030;-77
2024/01/10 03:08:02;;;;;;;12.48;6.32;;;;;;;;;;5029248;28;20438;-78
2024/01/10 03:10:28;;;;;;;12.15;6.18;;;;;;;;;;5022831;28;20088;-78
2024/01/10 03:12:55;;;;;;;13.23;6.75;;;;;;;;;;5027902;28;20141;-78
2024/01/10 03:15:21;;;;;;;12.70;6.38;;;;;;;;;;5025848;28;20368;-78
2024/01/10 03:17:47;;;;;;;12.18;6.55;;;;;;;;;;5028565;28;20112;-79
2024/01/10 03:20:13;;;;;;;12.27;6.15;;;;;;;;;;5031811;28;20097;-77
2024/01/10 03:22:39;;;;;;;13.27;6.53;;;;;;;;;;5026536;28;20025;-77
2024/01/10 03:25:05;;;;;;;14.20;6.78;;;;;;;;;;5026158;28;20022;-77
2024/01/10 03:27:31;;;;;;;14.73;6.90;;;;;;;;;;5027073;28;20080;-77
2024/01/10 03:29:58;;;;;;;13.38;6.43;;;;;;;;;;5023494;28;20100;-78
2024/01/10 03:32:24;;;;;;;15.02;6.68;;;;;;;;;;5023015;28;20033;-77
2024/01/10 03:34:52;;;;;;;12.43;6.97;;;;;;;;;;5025995;28;20084;-77
2024/01/10 03:37:19;;;;;;;16.17;6.90;;;;;;;;;;5026708;28;20065;-77
2024/01/10 03:39:45;;;;;;;11.15;6.25;;;;;;;;;;5026351;28;20022;-76
2024/01/10 03:42:11;;;;;;;11.98;6.60;;;;;;;;;;5027281;28;20080;-77
2024/01/10 03:44:38;;;;;;;15.07;6.75;;;;;;;;;;5023328;28;20053;-78
2024/01/10 03:47:05;;;;;;;11.27;6.22;;;;;;;;;;5027869;28;20041;-77
2024/01/10 03:49:31;;;;;;;13.02;6.78;;;;;;;;;;5025833;28;20151;-78
2024/01/10 03:51:57;;;;;;;12.45;6.82;;;;;;;;;;5030074;28;20497;-77
2024/01/10 03:54:23;;;;;;;10.85;5.97;;;;;;;;;;5029188;28;20030;-79
2024/01/10 03:56:50;;;;;;;11.88;6.15;;;;;;;;;;5030132;28;20975;-76
2024/01/10 03:59:16;;;;;;;14.52;6.40;;;;;;;;;;5046444;28;20033;-78
2024/01/10 04:01:42;;;;;;;14.75;6.90;;;;;;;;;;5029787;28;20027;-78
2024/01/10 04:04:08;;;;;;;14.52;6.82;;;;;;;;;;5028755;28;20136;-78
2024/01/10 04:06:34;;;;;;;15.60;7.30;;;;;;;;;;5029950;28;20045;-77
2024/01/10 04:09:01;;;;;;;13.85;6.75;;;;;;;;;;5029195;28;20029;-77
2024/01/10 04:11:27;;;;;;;11.38;6.25;;;;;;;;;;5029827;28;20493;-77
2024/01/10 04:13:56;;;;;;;13.52;6.97;;;;;;;;;;5028512;28;20033;-77
2024/01/10 04:16:24;;;;;;;14.65;7.07;;;;;;;;;;5031220;28;20041;-77
2024/01/10 04:18:50;;;;;;;11.23;6.97;;;;;;;;;;5043003;28;20106;-77
2024/01/10 04:21:17;;;;;;;13.90;6.93;;;;;;;;;;5030193;28;20117;-77
2024/01/10 04:23:43;;;;;;;14.52;7.50;;;;;;;;;;5029682;28;20041;-76
2024/01/10 04:26:09;;;;;;;14.90;6.65;;;;;;;;;;5030359;28;20109;-77
2024/01/10 04:28:35;;;;;;;13.25;6.53;;;;;;;;;;5038008;28;20045;-77
2024/01/10 04:31:01;;;;;;;14.07;6.60;;;;;;;;;;5030149;28;20021;-78
2024/01/10 04:33:27;;;;;;;13.88;7.00;;;;;;;;;;5030762;28;20048;-78
2024/01/10 04:35:53;;;;;;;11.73;6.50;;;;;;;;;;5031207;28;20034;-77
2024/01/10 04:38:20;;;;;;;14.27;6.80;;;;;;;;;;5030691;28;20083;-78
2024/01/10 04:40:46;;;;;;;15.07;7.00;;;;;;;;;;5029340;28;20108;-77
2024/01/10 04:43:12;;;;;;;14.30;7.32;;;;;;;;;;5029967;28;20037;-77
2024/01/10 04:45:38;;;;;;;13.88;6.97;;;;;;;;;;5028379;28;20128;-77
2024/01/10 04:48:04;;;;;;;13.02;7.10;;;;;;;;;;5028262;28;20068;-76
2024/01/10 04:50:30;;;;;;;13.43;7.55;;;;;;;;;;5031569;28;20036;-77
2024/01/10 04:52:57;;;;;;;12.85;7.00;;;;;;;;;;5027046;28;20145;-78
2024/01/10 04:55:25;;;;;;;15.68;7.15;;;;;;;;;;5031519;28;20124;-81
2024/01/10 04:57:51;;;;;;;12.95;6.35;;;;;;;;;;5028875;28;20068;-77
2024/01/10 05:00:17;;;;;;;12.27;7.22;;;;;;;;;;5030698;28;20045;-78
2024/01/10 05:02:44;;;;;;;13.90;7.68;;;;;;;;;;5030294;28;20096;-76
2024/01/10 05:05:10;;;;;;;12.93;7.20;;;;;;;;;;5030201;28;20034;-77
2024/01/10 05:07:36;;;;;;;13.20;6.68;;;;;;;;;;5030548;28;20044;-77
2024/01/10 05:10:02;;;;;;;13.77;7.18;;;;;;;;;;5029669;28;20121;-77
2024/01/10 05:12:28;;;;;;;14.05;7.53;;;;;;;;;;5030709;28;20031;-78
2024/01/10 05:14:54;;;;;;;13.98;7.32;;;;;;;;;;5029271;28;20352;-79
2024/01/10 05:17:21;;;;;;;14.25;7.13;;;;;;;;;;5030619;28;20033;-77
2024/01/10 05:19:47;;;;;;;12.98;6.82;;;;;;;;;;5030218;28;20333;-77
2024/01/10 05:22:13;;;;;;;15.73;7.38;;;;;;;;;;5030287;28;20497;-77
2024/01/10 05:24:39;;;;;;;12.93;6.80;;;;;;;;;;5028157;28;20510;-77
2024/01/10 05:27:05;;;;;;;13.18;6.82;;;;;;;;;;5029365;28;20033;-76
2024/01/10 05:29:31;;;;;;;11.60;7.57;;;;;;;;;;5029487;28;20567;-78
2024/01/10 05:31:58;;;;;;;12.90;7.30;;;;;;;;;;5029179;28;20053;-77
2024/01/10 05:34:24;;;;;;;12.75;6.85;;;;;;;;;;5029123;28;20429;-77
2024/01/10 05:36:50;;;;;;;10.65;6.60;;;;;;;;;;5026636;28;20036;-77
2024/01/10 05:39:16;;;;;;;16.02;7.30;;;;;;;;;;5028867;28;20028;-78
2024/01/10 05:41:43;;;;;;;17.58;7.13;;;;;;;;;;5029220;28;20022;-77
2024/01/10 05:44:09;;;;;;;13.77;7.18;;;;;;;;;;5032005;28;20062;-76
2024/01/10 05:46:35;;;;;;;16.35;7.43;;;;;;;;;;5026765;28;20033;-77
2024/01/10 05:49:04;;;;;;;14.18;7.10;;;;;;;;;;5029813;28;20080;-79
2024/01/10 05:51:30;;;;;;;14.70;7.45;;;;;;;;;;5029832;28;20033;-77
2024/01/10 05:53:56;;;;;;;13.43;7.28;;;;;;;;;;5030797;28;20036;-77
2024/01/10 05:56:23;;;;;;;11.43;6.70;;;;;;;;;;5029702;28;20037;-77
2024/01/10 05:58:50;;;;;;;17.15;7.60;;;;;;;;;;5030034;28;20068;-77
2024/01/10 06:01:17;;;;;;;16.50;7.75;;;;;;;;;;5029629;28;20091;-77
2024/01/10 06:03:43;;;;;;;15.23;6.95;;;;;;;;;;5028822;28;20123;-77
2024/01/10 06:06:09;;;;;;;14.90;6.97;;;;;;;;;;5029885;28;20038;-77
2024/01/10 06:08:36;;;;;;;16.42;8.05;;;;;;;;;;5029629;28;20029;-78
2024/01/10 06:11:08;;;;;;;13.95;6.78;;;;;;;;;;5029674;28;20038;-79
2024/01/10 06:13:35;;;;;;;15.02;6.68;;;;;;;;;;5027757;28;20120;-77
2024/01/10 06:16:02;;;;;;;16.23;7.88;;;;;;;;;;5030069;28;20441;-76
2024/01/10 06:18:28;;;;;;;12.02;6.63;;;;;;;;;;5026576;28;20087;-77
2024/01/10 06:20:54;;;;;;;12.60;6.68;;;;;;;;;;5026403;28;20402;-78
2024/01/10 06:23:21;;;;;;;14.55;7.93;;;;;;;;;;5028614;28;20128;-77
2024/01/10 06:25:47;;;;;;;14.60;6.60;;;;;;;;;;5027553;28;20417;-77
2024/01/10 06:28:13;;;;;;;13.10;7.15;;;;;;;;;;5026402;28;20044;-78
2024/01/10 06:30:39;;;;;;;14.45;6.82;;;;;;;;;;5025746;28;20309;-77
2024/01/10 06:33:06;;;;;;;15.07;7.75;;;;;;;;;;5029536;28;20037;-78
2024/01/10 06:35:34;;;;;;;14.70;6.95;;;;;;;;;;5031701;28;20206;-77
2024/01/10 06:38:03;;;;;;;16.42;7.68;;;;;;;;;;5028610;28;20052;-78
2024/01/10 06:40:30;;;;;;;14.38;7.55;;;;;;;;;;5028414;28;20044;-77
2024/01/10 06:42:56;;;;;;;14.90;7.70;;;;;;;;;;5028363;28;20403;-76
2024/01/10 06:45:22;;;;;;;13.40;7.15;;;;;;;;;;5029124;28;20049;-77
2024/01/10 06:47:48;;;;;;;15.55;7.65;;;;;;;;;;5028631;28;20032;-77
2024/01/10 06:50:15;;;;;;;16.05;7.60;;;;;;;;;;5028267;28;20036;-77
2024/01/10 06:52:41;;;;;;;16.90;7.43;;;;;;;;;;5030481;28;20037;-78
2024/01/10 06:55:08;;;;;;;13.13;6.90;;;;;;;;;;5027187;28;20205;-77
2024/01/10 06:57:34;;;;;;;13.55;7.30;;;;;;;;;;5028275;28;20025;-76
2024/01/10 07:00:03;;;;;;;13.65;7.00;;;;;;;;;;5026967;28;20041;-77
2024/01/10 07:02:29;;;;;;;12.93;7.05;;;;;;;;;;5029733;28;20041;-78
2024/01/10 07:04:55;;;;;;;16.90;7.20;;;;;;;;;;5029184;28;20056;-77
2024/01/10 07:07:21;;;;;;;13.15;6.65;;;;;;;;;;5028814;28;20473;-76
2024/01/10 07:09:47;;;;;;;16.30;7.72;;;;;;;;;;5028854;28;20026;-77
2024/01/10 07:12:13;;;;;;;15.38;7.18;;;;;;;;;;5030100;28;20029;-79
2024/01/10 07:14:40;;;;;;;17.90;7.60;;;;;;;;;;5029120;28;20356;-78
2024/01/10 07:17:06;;;;;;;14.75;6.65;;;;;;;;;;5032009;28;20041;-76
2024/01/10 07:19:32;;;;;;;14.23;7.20;;;;;;;;;;5032842;28;20037;-77
2024/01/10 07:21:58;;;;;;;16.20;6.90;;;;;;;;;;5029519;28;20046;-75
2024/01/10 07:24:24;;;;;;;12.95;7.07;;;;;;;;;;5029490;28;20446;-76
2024/01/10 07:26:51;;;;;;;13.27;6.93;;;;;;;;;;5032882;28;20029;-77
2024/01/10 07:29:17;;;;;;;15.20;7.13;;;;;;;;;;5033177;28;20176;-77
2024/01/10 07:31:43;;;;;;;13.63;6.72;;;;;;;;;;5032191;28;20053;-78
2024/01/10 07:34:09;;;;;;;12.75;6.82;;;;;;;;;;5030867;28;20060;-77
2024/01/10 07:36:42;;;;;;;13.45;6.93;;;;;;;;;;5032935;28;20457;-77
2024/01/10 07:39:08;;;;;;;14.25;6.13;;;;;;;;;;5032998;28;20171;-77
2024/01/10 07:41:34;;;;;;;17.67;7.63;;;;;;;;;;5032304;28;20029;-77
2024/01/10 07:44:00;;;;;;;15.68;7.32;;;;;;;;;;5032641;28;20100;-77
2024/01/10 07:46:27;;;;;;;16.48;7.40;;;;;;;;;;5031367;28;20464;-76
2024/01/10 07:48:53;;;;;;;14.80;6.78;;;;;;;;;;5032744;28;20421;-77
2024/01/10 07:51:19;;;;;;;13.05;6.85;;;;;;;;;;5052684;28;20126;-77
2024/01/10 07:53:45;;;;;;;14.88;6.90;;;;;;;;;;5052354;28;20044;-77
2024/01/10 07:56:14;;;;;;;13.50;6.63;;;;;;;;;;5052448;28;20122;-77
2024/01/10 07:58:41;;;;;;;14.85;7.15;;;;;;;;;;5052452;28;20397;-77
2024/01/10 08:01:07;;;;;;;14.10;6.60;;;;;;;;;;5035851;28;20026;-77
2024/01/10 08:03:33;;;;;;;15.50;7.25;;;;;;;;;;5032406;28;20712;-77
2024/01/10 08:05:59;;;;;;;14.98;6.85;;;;;;;;;;5064095;28;20026;-75
2024/01/10 08:08:25;;;;;;;14.27;6.82;;;;;;;;;;5033743;28;20490;-79
2024/01/10 08:10:52;;;;;;;29.27;8.32;;;;;;;;;;5046666;28;20041;-76
2024/01/10 08:13:19;;;;;;;12.18;7.07;;;;;;;;;;5054807;28;20033;-78
2024/01/10 08:15:45;;;;;;;13.60;6.72;;;;;;;;;;5053512;28;20041;-77
2024/01/10 08:18:11;;;;;;;18.02;7.57;;;;;;;;;;5040845;28;20040;-77
2024/01/10 08:20:38;;;;;;;14.32;6.93;;;;;;;;;;5043142;28;20367;-77
2024/01/10 08:23:04;;;;;;;12.80;6.57;;;;;;;;;;5052621;28;20021;-77
2024/01/10 08:25:30;;;;;;;14.20;6.55;;;;;;;;;;5050347;28;20064;-78
2024/01/10 08:27:57;;;;;;;14.40;7.57;;;;;;;;;;5052459;28;20048;-77
2024/01/10 08:30:24;;;;;;;15.20;7.25;;;;;;;;;;5051619;28;20037;-78
2024/01/10 08:32:50;;;;;;;15.77;7.35;;;;;;;;;;5052375;28;20025;-77
2024/01/10 08:35:16;;;;;;;14.82;7.30;;;;;;;;;;5052065;28;20029;-79
2024/01/10 08:37:44;;;;;;;14.57;6.60;;;;;;;;;;5049907;28;20028;-78
2024/01/10 08:40:12;;;;;;;16.50;6.80;;;;;;;;;;5056113;28;20398;-78
2024/01/10 08:42:41;;;;;;;13.55;6.82;;;;;;;;;;5059251;28;20029;-77
2024/01/10 08:45:09;;;;;;;14.77;6.93;;;;;;;;;;5054046;28;20053;-76
2024/01/10 08:47:36;;;;;;;11.60;6.45;;;;;;;;;;5051700;28;20200;-76
2024/01/10 08:50:04;;;;;;;12.80;6.53;;;;;;;;;;5047871;28;20109;-78
2024/01/10 08:52:31;;;;;;;12.38;6.57;;;;;;;;;;5031825;28;20052;-78
2024/01/10 08:54:57;;;;;;;14.15;6.28;;;;;;;;;;5032388;28;20033;-77
2024/01/10 08:57:25;;;;;;;17.80;7.13;;;;;;;;;;5031879;28;20061;-76
2024/01/10 08:59:51;;;;;;;11.93;6.47;;;;;;;;;;5031947;28;20674;-78
2024/01/10 09:02:17;;;;;;;13.45;6.50;;;;;;;;;;5031594;28;20044;-78
2024/01/10 09:04:43;;;;;;;17.23;7.40;;;;;;;;;;5031544;28;20453;-77
2024/01/10 09:07:10;;;;;;;12.73;5.53;;;;;;;;;;5063350;28;20043;-77
2024/01/10 09:09:36;;;;;;;17.23;9.40;;;;;;;;;;5062679;28;20730;-77
2024/01/10 09:12:03;;;;;;;13.20;6.97;;;;;;;;;;5049258;28;20059;-77
2024/01/10 09:14:29;;;;;;;14.75;6.65;;;;;;;;;;5050887;28;20025;-77
2024/01/10 09:16:55;;;;;;;13.48;6.13;;;;;;;;;;5043810;28;20107;-76
2024/01/10 09:19:21;;;;;;;12.88;6.50;;;;;;;;;;5032266;28;20437;-78
2024/01/10 09:21:49;;;;;;;15.93;6.47;;;;;;;;;;5047535;28;20511;-78
2024/01/10 09:24:16;;;;;;;12.68;6.53;;;;;;;;;;5012455;28;20038;-80
2024/01/10 09:26:44;;;;;;;16.33;7.07;;;;;;;;;;5040826;28;20037;-77
2024/01/10 09:29:10;;;;;;;12.07;6.85;;;;;;;;;;5052103;28;20040;-77
2024/01/10 09:31:36;;;;;;;10.48;5.60;;;;;;;;;;5037081;28;20030;-77
2024/01/10 09:34:02;;;;;;;12.77;6.55;;;;;;;;;;5062818;28;20025;-76
2024/01/10 09:36:28;;;;;;;16.23;7.45;;;;;;;;;;5030220;28;20148;-77
2024/01/10 09:38:54;;;;;;;13.90;7.03;;;;;;;;;;5030982;28;20059;-77
2024/01/10 09:41:21;;;;;;;13.55;6.68;;;;;;;;;;5030881;28;20164;-78
2024/01/10 09:43:47;;;;;;;12.68;6.38;;;;;;;;;;5030745;28;20056;-77
2024/01/10 09:46:15;;;;;;;11.60;6.07;;;;;;;;;;5031038;28;20140;-77
2024/01/10 09:48:41;;;;;;;11.38;5.97;;;;;;;;;;5030413;28;20037;-77
2024/01/10 09:51:07;;;;;;;15.02;6.97;;;;;;;;;;5039493;28;20036;-76
2024/01/10 09:53:36;;;;;;;15.20;7.03;;;;;;;;;;5050887;28;20091;-77
2024/01/10 09:56:04;;;;;;;28.67;6.97;;;;;;;;;;5049722;28;20453;-77
2024/01/10 09:58:31;;;;;;;12.88;7.15;;;;;;;;;;5050013;28;20033;-76
2024/01/10 10:00:57;;;;;;;14.52;7.25;;;;;;;;;;5043477;28;20035;-78
2024/01/10 10:03:23;;;;;;;12.82;6.22;;;;;;;;;;5031432;28;20029;-78
2024/01/10 10:05:49;;;;;;;13.93;6.68;;;;;;;;;;5030035;28;20025;-76
2024/01/10 10:08:21;;;;;;;15.85;6.78;;;;;;;;;;5029948;28;20033;-77
2024/01/10 10:10:48;;;;;;;14.60;7.15;;;;;;;;;;5029562;28;20114;-76
2024/01/10 10:13:25;;;;;;;14.60;6.60;;;;;;;;;;5061611;28;20030;-76
2024/01/10 10:16:01;;;;;;;19.80;6.93;;;;;;;;;;5030265;28;20231;-76
2024/01/10 10:18:28;;;;;;;15.60;6.88;;;;;;;;;;5029781;28;20029;-76
2024/01/10 10:21:13;;;;;;;16.88;7.60;;;;;;;;;;5029003;28;20527;-77
2024/01/10 10:23:40;;;;;;;13.77;7.07;;;;;;;;;;5029489;28;20033;-77
2024/01/10 10:26:21;;;;;;;15.27;6.22;;;;;;;;;;5010061;28;20022;-76
2024/01/10 10:28:47;;;;;;;;;;;;;;;;;;5010396;28;20034;-74
2024/01/10 10:31:16;;;;;;;11.55;6.65;;;;;;;;;;5014395;28;20008;-78
2024/01/10 10:33:43;;;;;;;16.27;7.00;;;;;;;;;;5028539;28;20135;-77
2024/01/10 10:36:09;;;;;;;11.43;6.18;;;;;;;;;;5030244;28;20355;-77
2024/01/10 10:38:38;;;;;;;12.80;6.65;;;;;;;;;;5030480;28;20037;-75
2024/01/10 10:41:10;;;;;;;21.73;7.88;;;;;;;;;;5047692;28;20032;-77
2024/01/10 10:43:37;;;;;;;14.05;6.45;;;;;;;;;;5050249;28;20053;-77
2024/01/10 10:46:06;;;;;;;15.73;7.63;;;;;;;;;;5049950;28;20036;-75
2024/01/10 10:48:35;;;;;;;13.32;6.68;;;;;;;;;;5048321;28;20097;-75
2024/01/10 10:51:09;;;;;;;11.35;6.45;;;;;;;;;;5047203;28;20084;-74
2024/01/10 10:53:35;;;;;;;14.60;6.63;;;;;;;;;;5029754;28;20076;-76
2024/01/10 10:56:04;;;;;;;19.45;7.40;;;;;;;;;;5062353;28;20033;-76
2024/01/10 10:58:34;;;;;;;14.40;6.97;;;;;;;;;;5048948;28;20033;-76
2024/01/10 11:01:00;;;;;;;15.45;6.75;;;;;;;;;;5046185;28;20063;-76
2024/01/10 11:03:27;;;;;;;17.67;6.70;;;;;;;;;;5028700;28;20029;-75
2024/01/10 11:05:53;;;;;;;26.38;8.48;;;;;;;;;;5028773;28;20108;-76
2024/01/10 11:08:20;;;;;;;15.98;7.20;;;;;;;;;;5028255;28;20037;-76
2024/01/10 11:10:47;;;;;;;17.10;7.93;;;;;;;;;;5028876;28;20022;-75
2024/01/10 11:13:33;;;;;;;22.70;7.20;;;;;;;;;;5028876;28;20084;-74
2024/01/10 11:16:17;;;;;;;17.77;7.18;;;;;;;;;;5028942;28;20086;-76
2024/01/10 11:18:43;;;;;;;18.63;7.22;;;;;;;;;;5028990;28;20049;-75
2024/01/10 11:21:15;;;;;;;14.60;7.00;;;;;;;;;;5040748;28;20040;-76
2024/01/10 11:23:44;;;;;;;15.23;7.85;;;;;;;;;;5048815;28;20020;-76
2024/01/10 11:26:11;;;;;;;16.25;7.55;;;;;;;;;;5048652;28;20501;-76
2024/01/10 11:28:37;;;;;;;16.13;7.07;;;;;;;;;;5049084;28;20120;-76
2024/01/10 11:31:04;;;;;;;19.00;7.70;;;;;;;;;;5047138;28;20037;-76
2024/01/10 11:33:34;;;;;;;16.08;7.72;;;;;;;;;;5049397;28;20475;-76
2024/01/10 11:36:20;;;;;;;16.20;7.22;;;;;;;;;;5049074;28;20059;-77
2024/01/10 11:38:50;;;;;;;23.58;8.15;;;;;;;;;;5048778;28;20075;-77
2024/01/10 11:41:23;;;;;;;13.32;7.70;;;;;;;;;;5041049;28;20159;-76
2024/01/10 11:44:08;;;;;;;17.67;7.72;;;;;;;;;;5028797;28;20045;-76
2024/01/10 11:46:40;;;;;;;25.20;11.32;;;;;;;;;;5029180;28;20052;-77
2024/01/10 11:49:10;;;;;;;35.67;14.07;;;;;;;;;;5028881;28;20040;-78
2024/01/10 11:51:36;;;;;;;25.23;12.73;;;;;;;;;;5029898;28;20463;-76
2024/01/10 11:54:02;;;;;;;17.23;9.48;;;;;;;;;;5030327;28;20423;-80
2024/01/10 11:56:45;;;;;;;16.73;8.52;;;;;;;;;;5032417;28;20045;-77
2024/01/10 11:59:12;;;;;;;16.35;8.50;;;;;;;;;;5048078;28;20037;-77
2024/01/10 12:01:39;;;;;;;21.13;9.82;;;;;;;;;;5049242;28;20082;-76
2024/01/10 12:04:06;;;;;;;22.75;9.57;;;;;;;;;;5049082;28;20488;-77
2024/01/10 12:06:32;;;;;;;15.57;8.25;;;;;;;;;;5049210;28;20091;-77
2024/01/10 12:08:59;;;;;;;18.40;9.30;;;;;;;;;;5047856;28;20044;-77
2024/01/10 12:11:26;;;;;;;19.85;8.02;;;;;;;;;;5049308;28;20113;-76
2024/01/10 12:13:53;;;;;;;18.98;7.57;;;;;;;;;;5039721;28;20057;-77
2024/01/10 12:16:19;;;;;;;16.85;8.32;;;;;;;;;;5033403;28;20053;-77
2024/01/10 12:18:45;;;;;;;15.43;7.70;;;;;;;;;;5044528;28;20055;-76
2024/01/10 12:21:12;;;;;;;15.13;8.40;;;;;;;;;;5050499;28;20033;-77
2024/01/10 12:23:38;;;;;;;20.83;7.60;;;;;;;;;;5052209;28;20429;-78
2024/01/10 12:26:14;;;;;;;18.02;8.65;;;;;;;;;;5051798;28;20032;-76
2024/01/10 12:28:42;;;;;;;19.20;8.75;;;;;;;;;;5028613;28;20033;-78
2024/01/10 12:31:08;;;;;;;15.20;7.78;;;;;;;;;;5032634;28;20048;-77
2024/01/10 12:33:36;;;;;;;17.30;8.57;;;;;;;;;;5030853;28;20099;-77
2024/01/10 12:36:07;;;;;;;14.25;8.30;;;;;;;;;;5031771;28;20029;-76
2024/01/10 12:38:33;;;;;;;14.32;8.13;;;;;;;;;;5050896;28;20436;-77
2024/01/10 12:41:00;;;;;;;13.55;7.57;;;;;;;;;;5051268;28;20105;-77
2024/01/10 12:43:27;;;;;;;14.98;7.85;;;;;;;;;;5050955;28;20077;-78
2024/01/10 12:46:12;;;;;;;15.77;8.18;;;;;;;;;;5051575;28;20127;-77
2024/01/10 12:48:41;;;;;;;18.27;8.43;;;;;;;;;;5031755;28;20108;-78
2024/01/10 12:51:10;;;;;;;14.93;7.82;;;;;;;;;;5031527;28;20581;-77
2024/01/10 12:53:38;;;;;;;15.88;7.80;;;;;;;;;;5031444;28;20041;-76
2024/01/10 12:56:05;;;;;;;15.55;7.20;;;;;;;;;;5031936;28;20076;-77
2024/01/10 12:58:31;;;;;;;15.85;9.48;;;;;;;;;;5032414;28;20039;-78
2024/01/10 13:00:57;;;;;;;20.75;9.00;;;;;;;;;;5063743;28;20021;-77
2024/01/10 13:03:24;;;;;;;18.08;7.95;;;;;;;;;;5032254;28;20462;-79
2024/01/10 13:05:53;;;;;;;21.80;8.40;;;;;;;;;;5032301;28;20414;-77
2024/01/10 13:08:19;;;;;;;16.58;7.82;;;;;;;;;;5047958;28;20061;-79
2024/01/10 13:10:47;;;;;;;18.35;8.00;;;;;;;;;;5051334;28;20087;-77
2024/01/10 13:13:14;;;;;;;13.68;8.70;;;;;;;;;;5036720;28;20045;-78
2024/01/10 13:15:40;;;;;;;13.45;7.82;;;;;;;;;;5031440;28;20034;-77
2024/01/10 13:18:07;;;;;;;13.40;7.63;;;;;;;;;;5044917;28;20083;-77
2024/01/10 13:20:33;;;;;;;17.30;8.60;;;;;;;;;;5051097;28;20094;-77
2024/01/10 13:22:59;;;;;;;18.75;8.02;;;;;;;;;;5050795;28;20210;-77
2024/01/10 13:25:25;;;;;;;15.65;7.82;;;;;;;;;;5050800;28;20061;-78
2024/01/10 13:27:51;;;;;;;17.27;8.25;;;;;;;;;;5038292;28;20021;-76
2024/01/10 13:30:18;;;;;;;14.27;8.10;;;;;;;;;;5031168;28;20093;-76
2024/01/10 13:32:44;;;;;;;15.02;8.13;;;;;;;;;;5031514;28;20517;-77
2024/01/10 13:35:11;;;;;;;16.60;8.70;;;;;;;;;;5031205;28;20042;-78
2024/01/10 13:37:37;;;;;;;15.80;7.70;;;;;;;;;;5041160;28;20029;-77
2024/01/10 13:40:07;;;;;;;14.65;8.05;;;;;;;;;;5049968;28;20405;-77
2024/01/10 13:42:33;;;;;;;45.55;19.67;;;;;;;;;;5050238;28;20053;-76
2024/01/10 13:44:59;;;;;;;25.63;13.93;;;;;;;;;;5049132;28;20569;-76
2024/01/10 13:47:25;;;;;;;14.43;8.88;;;;;;;;;;5041493;28;20025;-77
2024/01/10 13:49:52;;;;;;;25.45;14.52;;;;;;;;;;5030450;28;20037;-76
2024/01/10 13:52:18;;;;;;;34.10;18.38;;;;;;;;;;5030840;28;20025;-76
2024/01/10 13:54:44;;;;;;;18.90;9.93;;;;;;;;;;5030038;28;20064;-77
2024/01/10 13:57:11;;;;;;;21.13;11.93;;;;;;;;;;5031122;28;20406;-76
2024/01/10 13:59:37;;;;;;;21.25;11.57;;;;;;;;;;5030034;28;20415;-77
2024/01/10 14:02:03;;;;;;;28.98;12.75;;;;;;;;;;5029852;28;20039;-78
2024/01/10 14:04:29;;;;;;;16.25;9.45;;;;;;;;;;5030354;28;20378;-78
2024/01/10 14:06:55;;;;;;;19.63;9.98;;;;;;;;;;5034050;28;20029;-79
2024/01/10 14:09:22;;;;;;;18.67;9.15;;;;;;;;;;5050761;28;20060;-76
2024/01/10 14:11:49;;;;;;;17.38;9.82;;;;;;;;;;5052761;28;20045;-76
2024/01/10 14:14:16;;;;;;;17.80;9.50;;;;;;;;;;5032660;28;20181;-76
2024/01/10 14:16:42;;;;;;;19.05;9.52;;;;;;;;;;5031334;28;20029;-77
2024/01/10 14:19:08;;;;;;;18.63;9.93;;;;;;;;;;5031700;28;20073;-77
2024/01/10 14:21:34;;;;;;;16.55;9.02;;;;;;;;;;5031742;28;20025;-77
2024/01/10 14:24:01;;;;;;;17.02;9.07;;;;;;;;;;5030312;28;20044;-76
2024/01/10 14:26:27;;;;;;;19.25;10.55;;;;;;;;;;5029872;28;20096;-76
2024/01/10 14:28:55;;;;;;;16.48;8.70;;;;;;;;;;5048778;28;20048;-76
2024/01/10 14:31:22;;;;;;;27.80;13.07;;;;;;;;;;5050013;28;20207;-77